Terminal Aerodrome Forecast
Issued by NWS Hastings, NE

Home | Current Version | Previous Version | Text Only | Print | Product List | Glossary On
Versions: 1 2 3 4 5 6 7 8 9 10 11 12 13
338
FTUS45 KGID 081131
TAFEAR
TAF
KEAR 081131Z 0812/0912 32012G20KT P6SM SKC
     FM082200 33007KT P6SM SKC
     FM090200 VRB03KT P6SM SKC
     FM090900 14004KT P6SM SCT100 BKN200
      AMD LTD TO CLD VIS AND WIND=

USA.gov is the U.S. government's official web portal to all federal, state and local government web resources and services.